Saint Johns, Ohio
Current Conditions -  °F | °C
As of 4:53 AM on Friday 28 Nov 2014 (Local Time) from KAOH Reporting Station
Broken Clouds Broken Clouds  
Wind Chill: 17°   Ceiling: 3600
Heat Index: 24°   Visibility: 10mi
Dew Point: 18°   Wind: 6mph
Humidity: 77%   Direction: 320°NW
Pressure: 30.34"   Gusts: NA
Location:  40.56°N, 84.08°W
Report Text: KAOH 280953Z AUTO 32005KT 10SM BKN036 M04/M08 A3034 RMK AO2 SLP287 T10441078
Loading
Personal Weather Stations






























Interactive Weather Map New forecast layout! Learn more

10-Day Weather Forecast

Advertisements
Track Severe Weather on mobile